Time;durP1;ratioP1;P1;durP2;ratioP2;P2;SDS_P1;SDS_P2;PMS_P1;PMS_P2;Temp;Humidity;BMP_temperature;BMP_pressure;BME280_temperature;BME280_humidity;BME280_pressure;Samples;Min_cycle;Max_cycle;Signal;HPM_P1;HPM_P2
2021/07/28 00:01:01;;;;;;;4.25;1.98;;;16.40;71.20;;;;;;4980963;28;95316;-50
2021/07/28 00:03:32;;;;;;;3.17;1.63;;;16.40;71.10;;;;;;4981276;28;96605;-49
2021/07/28 00:06:04;;;;;;;5.22;2.15;;;16.50;71.00;;;;;;4983546;28;95608;-50
2021/07/28 00:08:39;;;;;;;3.50;1.52;;;16.50;70.90;;;;;;4976275;28;95779;-51
2021/07/28 00:11:15;;;;;;;2.78;1.55;;;16.60;70.70;;;;;;4963578;28;95844;-51
2021/07/28 00:13:47;;;;;;;2.78;1.70;;;16.60;70.50;;;;;;4980060;28;97520;-58
2021/07/28 00:16:19;;;;;;;5.40;2.53;;;16.70;71.40;;;;;;4962883;28;95812;-54
2021/07/28 00:24:10;;;;;;;3.70;1.23;;;16.90;71.00;;;;;;4976125;28;96059;-65
2021/07/28 00:26:42;;;;;;;3.70;1.77;;;17.00;71.00;;;;;;4979196;28;96672;-62
2021/07/28 00:29:13;;;;;;;3.65;1.10;;;17.00;71.10;;;;;;4981759;28;95716;-61
2021/07/28 00:31:45;;;;;;;2.28;1.30;;;17.10;71.20;;;;;;4979856;28;95431;-61
2021/07/28 00:34:17;;;;;;;3.45;1.60;;;17.10;71.00;;;;;;4963703;28;95612;-57
2021/07/28 00:36:47;;;;;;;3.97;1.55;;;17.20;70.70;;;;;;4965540;28;96594;-57
2021/07/28 00:39:20;;;;;;;3.92;1.75;;;17.20;70.70;;;;;;4979438;28;95474;-62
2021/07/28 00:41:52;;;;;;;2.63;1.42;;;17.20;70.70;;;;;;4979378;28;96198;-56
2021/07/28 00:44:23;;;;;;;3.03;1.35;;;17.30;70.80;;;;;;4981030;28;95760;-50
2021/07/28 00:46:55;;;;;;;5.63;1.52;;;17.30;71.00;;;;;;4981156;28;95660;-59
2021/07/28 00:49:27;;;;;;;2.95;1.33;;;17.30;71.00;;;;;;4984131;28;95547;-62
2021/07/28 00:52:02;;;;;;;3.30;1.45;;;17.30;71.00;;;;;;4974198;28;96431;-59
2021/07/28 00:54:33;;;;;;;2.78;2.00;;;17.40;71.00;;;;;;4983335;28;95834;-62
2021/07/28 00:57:04;;;;;;;;;;;17.40;70.60;;;;;;4959072;28;95887;-60
2021/07/28 00:59:36;;;;;;;6.00;1.70;;;17.40;70.70;;;;;;4978896;28;96570;-55
2021/07/28 01:02:09;;;;;;;3.25;1.33;;;17.40;70.60;;;;;;4975351;28;96005;-50
2021/07/28 01:04:41;;;;;;;2.38;1.67;;;17.50;70.30;;;;;;4964335;28;97968;-53
2021/07/28 01:07:12;;;;;;;3.78;1.50;;;17.40;70.00;;;;;;4979220;28;96146;-49
2021/07/28 01:09:42;;;;;;;6.53;1.50;;;17.50;70.10;;;;;;4982012;28;95773;-55
2021/07/28 01:12:12;;;;;;;2.75;1.67;;;17.50;70.10;;;;;;4979559;28;97995;-62
2021/07/28 01:14:44;;;;;;;3.70;1.85;;;17.50;69.80;;;;;;4978894;28;97330;-64
2021/07/28 01:17:14;;;;;;;1.67;1.33;;;17.60;69.60;;;;;;4974579;28;97059;-50
2021/07/28 01:19:48;;;;;;;;;;;17.70;69.40;;;;;;4983719;28;95710;-66
2021/07/28 01:22:22;;;;;;;1.38;1.25;;;17.80;69.50;;;;;;4964101;28;95789;-52
2021/07/28 01:24:53;;;;;;;2.53;1.73;;;17.80;69.40;;;;;;4982547;28;96000;-56
2021/07/28 01:27:25;;;;;;;1.63;0.95;;;17.90;69.40;;;;;;4962096;28;97349;-51
2021/07/28 01:29:57;;;;;;;2.10;1.20;;;18.00;69.60;;;;;;4979784;28;95617;-54
2021/07/28 01:32:29;;;;;;;2.63;1.35;;;18.10;69.60;;;;;;4973805;28;95827;-63
2021/07/28 01:35:01;;;;;;;2.17;1.17;;;18.10;69.70;;;;;;4980552;28;95897;-55
2021/07/28 01:37:32;;;;;;;1.17;1.00;;;18.20;69.80;;;;;;4978749;28;96247;-59
2021/07/28 01:40:03;;;;;;;1.40;1.10;;;18.30;69.60;;;;;;4966666;28;95180;-57
2021/07/28 01:42:46;;;;;;;1.92;1.20;;;18.40;70.10;;;;;;4963899;28;95926;-53
2021/07/28 01:45:18;;;;;;;3.40;1.50;;;18.50;69.20;;;;;;4982110;28;96210;-51
2021/07/28 01:47:48;;;;;;;1.25;0.90;;;18.50;68.90;;;;;;4975456;28;101414;-54
2021/07/28 01:50:19;;;;;;;;;;;18.60;68.70;;;;;;4958763;28;95974;-55
2021/07/28 01:52:50;;;;;;;1.75;1.50;;;18.60;68.50;;;;;;4977861;28;96248;-54
2021/07/28 01:55:21;;;;;;;1.50;1.20;;;18.60;68.20;;;;;;4960306;28;95817;-53
2021/07/28 01:57:58;;;;;;;2.13;1.17;;;18.70;68.30;;;;;;4981087;28;95581;-53
2021/07/28 02:00:29;;;;;;;5.90;1.92;;;18.70;68.20;;;;;;4979298;28;96252;-54
2021/07/28 02:03:03;;;;;;;2.13;1.23;;;18.70;68.20;;;;;;4963186;28;95797;-51
2021/07/28 02:05:37;;;;;;;2.88;1.55;;;18.70;68.70;;;;;;4960873;28;95789;-50
2021/07/28 02:08:13;;;;;;;3.65;1.67;;;18.80;68.40;;;;;;4973689;28;95788;-53
2021/07/28 02:10:47;;;;;;;4.35;1.63;;;18.80;68.10;;;;;;4986305;28;95197;-48
2021/07/28 02:13:20;;;;;;;1.77;1.30;;;18.90;68.10;;;;;;4967200;28;95557;-44
2021/07/28 02:15:51;;;;;;;2.80;1.60;;;18.90;68.20;;;;;;4963809;28;97506;-47
2021/07/28 02:18:26;;;;;;;4.75;1.55;;;19.00;68.10;;;;;;4980864;28;97490;-48
2021/07/28 02:20:58;;;;;;;1.20;1.00;;;19.00;68.10;;;;;;4979293;28;96689;-51
2021/07/28 02:23:38;;;;;;;5.55;1.40;;;19.10;68.90;;;;;;4967077;28;96247;-63
2021/07/28 02:26:10;;;;;;;2.63;1.27;;;19.30;68.70;;;;;;4984126;28;95626;-58
2021/07/28 02:28:41;;;;;;;1.58;1.38;;;19.50;68.70;;;;;;4980522;28;97736;-53
2021/07/28 02:31:12;;;;;;;;;;;19.70;68.70;;;;;;4961753;28;95529;-60
2021/07/28 02:33:43;;;;;;;1.27;1.15;;;19.80;68.50;;;;;;4983223;28;96124;-59
2021/07/28 02:36:13;;;;;;;2.85;1.13;;;20.00;68.30;;;;;;4982771;28;96558;-59
2021/07/28 02:38:45;;;;;;;1.50;1.17;;;20.20;68.10;;;;;;4978079;28;98171;-57
2021/07/28 02:41:16;;;;;;;;;;;20.30;67.70;;;;;;4978680;28;95848;-63
2021/07/28 02:43:47;;;;;;;1.03;0.93;;;20.60;67.30;;;;;;4986799;28;95948;-56
2021/07/28 02:46:23;;;;;;;1.00;0.90;;;20.70;66.90;;;;;;4977942;28;97600;-60
2021/07/28 02:48:55;;;;;;;1.50;1.00;;;20.90;66.70;;;;;;4984673;28;95847;-50
2021/07/28 02:51:26;;;;;;;1.17;1.05;;;21.10;66.20;;;;;;4973678;28;98849;-57
2021/07/28 02:53:57;;;;;;;1.13;0.93;;;21.20;66.20;;;;;;4982046;28;99043;-57
2021/07/28 02:56:28;;;;;;;1.30;1.10;;;21.40;66.00;;;;;;4976654;28;96401;-55
2021/07/28 02:58:59;;;;;;;;;;;21.50;65.80;;;;;;4983658;28;95766;-53
2021/07/28 03:01:32;;;;;;;3.13;1.38;;;21.60;65.70;;;;;;4971777;28;96284;-61
2021/07/28 03:04:03;;;;;;;1.15;1.05;;;21.80;65.30;;;;;;4964283;28;96113;-55
2021/07/28 03:06:34;;;;;;;1.52;1.20;;;21.90;64.80;;;;;;4927666;28;98401;-61
2021/07/28 03:09:04;;;;;;;1.58;0.93;;;22.10;64.30;;;;;;4962692;28;95584;-61
2021/07/28 03:11:35;;;;;;;1.50;1.40;;;22.20;64.10;;;;;;4955278;28;95667;-55
2021/07/28 03:14:06;;;;;;;1.10;1.00;;;22.30;64.00;;;;;;4962713;28;96978;-57
2021/07/28 03:16:39;;;;;;;1.33;1.02;;;22.50;63.80;;;;;;4966427;28;97207;-53
2021/07/28 03:19:09;;;;;;;1.30;0.90;;;22.50;63.60;;;;;;4969319;28;96614;-55
2021/07/28 03:21:40;;;;;;;1.13;0.93;;;22.60;63.40;;;;;;4981035;28;95437;-57
2021/07/28 03:24:11;;;;;;;0.98;0.80;;;22.70;63.40;;;;;;4981664;28;96380;-61
2021/07/28 03:26:43;;;;;;;1.00;0.90;;;22.70;63.50;;;;;;4961950;28;98636;-54
2021/07/28 03:29:14;;;;;;;2.45;0.98;;;22.90;63.40;;;;;;4978124;28;95928;-53
2021/07/28 03:31:44;;;;;;;1.15;1.05;;;23.00;63.40;;;;;;4975443;28;95117;-58
2021/07/28 03:34:16;;;;;;;1.85;1.50;;;23.10;63.30;;;;;;4972547;28;95730;-56
2021/07/28 03:36:46;;;;;;;1.75;1.00;;;23.20;63.10;;;;;;4981215;28;97785;-59
2021/07/28 03:39:16;;;;;;;2.20;1.00;;;23.30;62.90;;;;;;4983982;28;96267;-61
2021/07/28 03:41:48;;;;;;;1.38;1.10;;;23.40;62.20;;;;;;4980761;28;95504;-62
2021/07/28 03:44:19;;;;;;;1.55;1.10;;;23.60;61.40;;;;;;4981340;28;95428;-57
2021/07/28 03:46:53;;;;;;;1.90;1.30;;;23.70;60.70;;;;;;4974346;28;100663;-59
2021/07/28 03:49:27;;;;;;;1.73;1.30;;;23.80;60.30;;;;;;4982829;28;96248;-53
2021/07/28 03:51:59;;;;;;;2.08;1.42;;;23.90;60.50;;;;;;4973229;28;96425;-57
2021/07/28 03:54:30;;;;;;;1.38;1.23;;;23.90;60.60;;;;;;4978585;28;96088;-48
2021/07/28 03:57:05;;;;;;;2.28;1.58;;;23.90;60.90;;;;;;4962930;28;96207;-50
2021/07/28 03:59:36;;;;;;;2.08;1.58;;;23.90;60.90;;;;;;4983575;28;96015;-54
2021/07/28 04:02:07;;;;;;;2.05;1.20;;;23.90;61.10;;;;;;4975542;28;95947;-47
2021/07/28 04:04:38;;;;;;;1.63;1.00;;;23.90;61.20;;;;;;4980571;28;96232;-45
2021/07/28 04:07:11;;;;;;;2.65;1.48;;;23.90;61.40;;;;;;4981341;28;95853;-48
2021/07/28 04:09:41;;;;;;;1.75;1.10;;;23.90;61.40;;;;;;4977427;28;96916;-55
2021/07/28 04:12:12;;;;;;;3.35;1.45;;;23.90;61.30;;;;;;4970939;28;96024;-47
2021/07/28 04:14:42;;;;;;;;;;;23.80;61.20;;;;;;4976913;28;96230;-47
2021/07/28 04:17:14;;;;;;;1.40;1.00;;;23.80;61.30;;;;;;4979629;28;96422;-51
2021/07/28 04:19:49;;;;;;;2.22;1.55;;;23.70;61.30;;;;;;4977596;28;95912;-57
2021/07/28 04:22:20;;;;;;;1.73;1.35;;;23.70;61.40;;;;;;4980332;28;95577;-59
2021/07/28 04:24:51;;;;;;;1.40;1.17;;;23.70;61.50;;;;;;4960859;28;103768;-52
2021/07/28 04:27:29;;;;;;;2.10;1.30;;;23.60;61.60;;;;;;4976789;28;96084;-53
2021/07/28 04:30:03;;;;;;;1.35;1.08;;;23.60;61.80;;;;;;4977629;28;98127;-50
2021/07/28 04:32:34;;;;;;;1.48;1.23;;;23.50;61.80;;;;;;4978884;28;95878;-60
2021/07/28 04:35:06;;;;;;;2.65;1.30;;;23.50;62.00;;;;;;4976979;28;96079;-55
2021/07/28 04:37:37;;;;;;;1.20;1.10;;;23.40;62.10;;;;;;4980867;28;96488;-61
2021/07/28 04:40:09;;;;;;;1.73;1.10;;;23.40;62.20;;;;;;4976509;28;96762;-58
2021/07/28 04:42:41;;;;;;;1.27;0.90;;;23.40;62.30;;;;;;4975392;28;97903;-50
2021/07/28 04:45:13;;;;;;;2.28;1.10;;;23.30;62.30;;;;;;4973836;28;96090;-54
2021/07/28 04:47:44;;;;;;;1.15;1.00;;;23.30;62.50;;;;;;4961519;28;96486;-47
2021/07/28 04:50:15;;;;;;;1.20;0.88;;;23.20;62.50;;;;;;4946191;28;96086;-48
2021/07/28 04:52:46;;;;;;;1.45;0.90;;;23.20;62.70;;;;;;4954190;28;96073;-59
2021/07/28 04:55:18;;;;;;;1.73;1.13;;;23.20;62.80;;;;;;4958131;28;96413;-58
2021/07/28 04:57:49;;;;;;;1.30;0.90;;;23.10;63.10;;;;;;4954848;28;95894;-54
2021/07/28 05:00:20;;;;;;;3.72;1.00;;;23.10;63.50;;;;;;4947914;28;96011;-49
2021/07/28 05:16:25;;;;;;;2.20;1.20;;;20.90;62.70;;;;;;5012251;27;97752;-48
2021/07/28 05:18:58;;;;;;;4.80;1.30;;;20.70;63.60;;;;;;4995293;28;97371;-45
2021/07/28 05:21:29;;;;;;;5.13;1.67;;;20.50;63.90;;;;;;4994701;28;95730;-47
2021/07/28 05:23:59;;;;;;;3.33;1.42;;;20.30;64.30;;;;;;4989020;28;95837;-48
2021/07/28 05:26:29;;;;;;;3.55;1.73;;;20.20;64.60;;;;;;4983340;28;95683;-45
2021/07/28 05:28:59;;;;;;;3.08;1.55;;;20.00;64.90;;;;;;4985739;28;95935;-46
2021/07/28 05:31:29;;;;;;;2.55;1.05;;;19.90;65.10;;;;;;4979238;28;95807;-46
2021/07/28 05:33:59;;;;;;;1.45;0.98;;;19.80;65.40;;;;;;4985475;28;96359;-48
2021/07/28 05:36:29;;;;;;;3.47;1.48;;;19.70;65.60;;;;;;4983612;28;95530;-46
2021/07/28 05:38:59;;;;;;;3.22;1.33;;;19.60;65.80;;;;;;4985703;28;95256;-48
2021/07/28 05:41:29;;;;;;;4.07;1.63;;;19.50;66.10;;;;;;4984125;28;95660;-47
2021/07/28 05:44:07;;;;;;;3.42;1.50;;;19.40;66.40;;;;;;4984143;28;96049;-46
2021/07/28 05:46:38;;;;;;;4.28;1.75;;;19.30;66.60;;;;;;4967474;28;95762;-47
2021/07/28 05:49:09;;;;;;;2.20;1.55;;;19.20;66.70;;;;;;4972204;28;96033;-46
2021/07/28 05:51:39;;;;;;;2.28;1.35;;;19.10;67.00;;;;;;4959893;28;96241;-46
2021/07/28 05:54:09;;;;;;;2.80;1.42;;;19.00;67.20;;;;;;4960384;28;96111;-46
2021/07/28 05:56:39;;;;;;;7.00;1.50;;;18.90;67.50;;;;;;4964654;28;95606;-46
2021/07/28 05:59:09;;;;;;;5.32;2.00;;;18.80;67.60;;;;;;4954833;28;96622;-46
2021/07/28 06:10:29;;;;;;;4.68;2.13;;;18.40;67.40;;;;;;5753388;23;96379;-69
2021/07/28 06:13:03;;;;;;;3.50;2.08;;;18.30;67.20;;;;;;4867450;28;95241;-69
2021/07/28 06:15:36;;;;;;;6.22;2.22;;;18.30;68.20;;;;;;4877266;28;96835;-69
2021/07/28 06:18:11;;;;;;;3.33;1.92;;;18.20;68.90;;;;;;4845802;28;96134;-66
2021/07/28 07:12:33;;;;;;;4.60;3.47;;;17.40;70.30;;;;;;3092176;27;97284;-68
2021/07/28 07:16:32;;;;;;;6.95;3.95;;;17.40;69.70;;;;;;5051990;27;96085;-67
2021/07/28 07:19:03;;;;;;;6.25;3.85;;;17.40;70.00;;;;;;5049882;27;95815;-63
2021/07/28 07:21:34;;;;;;;8.07;4.45;;;17.40;70.00;;;;;;5040113;27;97395;-62
2021/07/28 07:24:04;;;;;;;4.60;3.78;;;17.50;69.90;;;;;;5049173;27;96403;-63
2021/07/28 07:26:34;;;;;;;4.28;3.60;;;17.50;69.40;;;;;;5052250;27;95747;-64
2021/07/28 07:29:04;;;;;;;6.90;3.75;;;17.60;69.30;;;;;;5051165;27;96613;-66
2021/07/28 07:31:34;;;;;;;5.93;3.83;;;17.60;69.00;;;;;;5052694;27;95685;-64
2021/07/28 07:34:05;;;;;;;5.03;3.90;;;17.60;69.20;;;;;;5052469;27;96650;-66
2021/07/28 07:36:35;;;;;;;5.03;4.05;;;17.60;68.90;;;;;;5058891;27;96125;-66
2021/07/28 07:39:05;;;;;;;5.22;4.40;;;17.70;68.80;;;;;;5056130;27;95990;-65
2021/07/28 07:41:35;;;;;;;8.45;5.00;;;17.70;68.90;;;;;;5061315;27;95924;-66
2021/07/28 07:44:06;;;;;;;7.45;5.63;;;17.80;68.90;;;;;;5059333;27;97405;-68
2021/07/28 07:46:35;;;;;;;7.57;4.72;;;17.80;68.70;;;;;;5058564;27;95989;-67
2021/07/28 07:49:06;;;;;;;8.68;5.35;;;17.80;68.90;;;;;;5053967;27;95778;-67
2021/07/28 07:51:38;;;;;;;;;;;17.90;68.40;;;;;;5058414;27;97143;-67
2021/07/28 07:54:09;;;;;;;6.28;4.88;;;18.00;68.40;;;;;;5059856;27;96337;-67
2021/07/28 07:56:41;;;;;;;9.75;5.93;;;18.00;68.40;;;;;;5059329;27;95822;-67
2021/07/28 07:59:11;;;;;;;9.48;5.22;;;18.00;67.90;;;;;;5056703;27;95706;-67
2021/07/28 08:01:41;;;;;;;7.55;6.18;;;18.00;67.90;;;;;;5056077;27;95679;-65
2021/07/28 08:04:11;;;;;;;8.75;5.47;;;18.00;66.70;;;;;;5055643;27;102872;-67
2021/07/28 08:06:41;;;;;;;7.85;6.28;;;18.00;67.70;;;;;;5053946;27;96090;-67
2021/07/28 08:09:12;;;;;;;7.90;6.45;;;18.00;67.70;;;;;;5057644;27;95908;-66
2021/07/28 08:11:42;;;;;;;9.57;5.85;;;18.00;67.30;;;;;;5054360;27;97441;-67
2021/07/28 08:14:15;;;;;;;7.55;5.68;;;18.00;67.70;;;;;;5056530;27;97861;-67
2021/07/28 08:16:46;;;;;;;7.75;6.63;;;18.00;67.60;;;;;;5035314;27;97377;-66
2021/07/28 08:19:17;;;;;;;14.30;7.68;;;18.00;67.60;;;;;;5033640;27;95851;-66
2021/07/28 08:21:48;;;;;;;9.88;7.20;;;17.90;67.20;;;;;;5018578;27;96018;-65
2021/07/28 08:24:19;;;;;;;10.57;8.25;;;17.90;67.40;;;;;;5031819;27;96553;-67
2021/07/28 08:26:50;;;;;;;10.15;7.82;;;17.90;67.50;;;;;;5023304;27;96484;-67
2021/07/28 08:29:20;;;;;;;13.10;9.30;;;17.90;67.50;;;;;;5019935;28;95832;-66
2021/07/28 08:31:50;;;;;;;17.65;11.68;;;17.90;67.20;;;;;;5017244;27;98591;-67
2021/07/28 08:34:23;;;;;;;14.57;10.43;;;17.90;67.30;;;;;;5024697;28;96645;-67
2021/07/28 08:36:53;;;;;;;19.83;13.38;;;17.90;67.40;;;;;;5021577;28;95858;-67
2021/07/28 08:39:23;;;;;;;21.65;14.50;;;17.90;68.20;;;;;;5017933;28;95970;-67
2021/07/28 08:41:54;;;;;;;22.42;15.75;;;17.90;67.60;;;;;;5018281;28;96103;-68
2021/07/28 08:44:24;;;;;;;28.17;17.27;;;17.80;67.70;;;;;;5024955;27;96521;-66
2021/07/28 08:46:55;;;;;;;27.92;20.48;;;17.80;67.90;;;;;;5031058;27;96231;-66
2021/07/28 08:49:27;;;;;;;27.52;19.67;;;17.80;67.50;;;;;;5042784;27;95889;-63
2021/07/28 08:51:57;;;;;;;30.75;20.23;;;17.80;68.00;;;;;;5040231;27;95960;-63
2021/07/28 08:54:29;;;;;;;31.77;19.73;;;17.80;68.00;;;;;;5041602;27;97189;-64
2021/07/28 08:57:00;;;;;;;34.90;19.40;;;17.80;68.20;;;;;;5041170;27;95489;-63
2021/07/28 08:59:33;;;;;;;32.63;20.23;;;17.80;68.30;;;;;;5043684;27;96694;-63
2021/07/28 09:02:05;;;;;;;34.33;23.05;;;17.70;68.00;;;;;;5037052;27;95564;-62
2021/07/28 09:04:36;;;;;;;32.33;23.42;;;17.70;68.10;;;;;;5042044;27;96416;-62
2021/07/28 09:07:14;;;;;;;36.42;24.83;;;17.70;68.20;;;;;;5040784;27;96404;-63
2021/07/28 09:09:56;;;;;;;34.40;24.50;;;17.70;68.50;;;;;;5043577;27;96031;-62
2021/07/28 09:12:37;;;;;;;39.38;22.88;;;17.70;68.30;;;;;;5033017;27;96880;-63
2021/07/28 09:15:08;;;;;;;36.35;23.27;;;17.70;68.70;;;;;;5034887;27;96639;-62
2021/07/28 09:17:46;;;;;;;30.63;21.70;;;17.60;68.60;;;;;;5033053;27;103914;-63
2021/07/28 09:20:25;;;;;;;31.75;21.85;;;17.60;68.60;;;;;;5031676;27;95954;-62
2021/07/28 09:23:12;;;;;;;29.67;20.58;;;17.60;68.70;;;;;;5028790;27;96207;-62
2021/07/28 09:25:42;;;;;;;32.75;20.55;;;17.60;68.90;;;;;;5039386;27;98048;-64
2021/07/28 09:28:23;;;;;;;30.60;20.53;;;17.60;68.80;;;;;;5034570;27;95503;-60
2021/07/28 09:30:53;;;;;;;29.10;18.90;;;17.60;68.60;;;;;;5034115;27;96939;-61
2021/07/28 09:33:23;;;;;;;26.70;17.60;;;17.50;68.40;;;;;;5036691;27;95734;-64
2021/07/28 09:35:54;;;;;;;26.58;18.23;;;17.50;68.80;;;;;;5038561;27;96104;-63
2021/07/28 09:38:35;;;;;;;23.98;15.57;;;17.50;68.60;;;;;;5036783;27;97044;-64
2021/07/28 09:41:27;;;;;;;21.60;15.77;;;17.50;68.40;;;;;;5040432;27;96185;-63
2021/07/28 09:43:58;;;;;;;23.63;15.63;;;17.40;68.40;;;;;;5038104;27;95627;-63
2021/07/28 09:46:30;;;;;;;23.00;15.88;;;17.40;68.70;;;;;;5029365;27;96223;-63
2021/07/28 09:49:06;;;;;;;20.50;14.95;;;17.40;68.70;;;;;;5025369;27;96272;-63
2021/07/28 09:51:44;;;;;;;22.92;15.25;;;17.40;68.60;;;;;;5031533;27;95752;-63
2021/07/28 09:54:15;;;;;;;22.77;15.02;;;17.40;68.60;;;;;;5027618;27;96014;-63
2021/07/28 09:56:50;;;;;;;23.30;14.15;;;17.40;68.60;;;;;;5029402;27;96026;-64
2021/07/28 09:59:24;;;;;;;22.42;14.40;;;17.30;68.90;;;;;;5028313;27;96097;-63
2021/07/28 10:01:55;;;;;;;20.92;14.13;;;17.30;68.80;;;;;;5026596;27;95567;-64
2021/07/28 10:04:31;;;;;;;18.70;12.98;;;17.30;68.90;;;;;;5008015;27;96363;-63
2021/07/28 10:07:02;;;;;;;17.45;13.73;;;17.30;68.50;;;;;;5039924;27;98670;-63
2021/07/28 10:09:41;;;;;;;21.02;14.27;;;17.20;68.60;;;;;;5024089;27;95919;-63
2021/07/28 10:12:14;;;;;;;19.98;13.10;;;17.20;69.00;;;;;;5009934;27;95438;-63
2021/07/28 10:14:48;;;;;;;21.50;13.68;;;17.20;68.40;;;;;;5009485;27;95726;-63
2021/07/28 10:17:22;;;;;;;16.65;12.18;;;17.20;68.50;;;;;;5030057;27;98977;-62
2021/07/28 10:19:54;;;;;;;15.90;11.63;;;17.10;68.20;;;;;;5011428;27;95669;-62
2021/07/28 10:22:32;;;;;;;14.35;10.82;;;17.10;68.40;;;;;;5016760;28;96017;-63
2021/07/28 10:25:07;;;;;;;16.75;10.38;;;17.10;68.10;;;;;;5008872;27;95727;-62
2021/07/28 10:27:56;;;;;;;15.27;10.23;;;17.10;68.20;;;;;;5009547;28;96409;-62
2021/07/28 10:30:28;;;;;;;15.90;10.48;;;17.10;67.70;;;;;;5008129;27;97175;-61
2021/07/28 10:32:59;;;;;;;12.93;9.48;;;17.00;67.80;;;;;;5014040;27;95752;-61
2021/07/28 10:35:30;;;;;;;13.63;9.30;;;17.00;67.70;;;;;;5023439;27;95711;-62
2021/07/28 10:38:02;;;;;;;12.93;8.68;;;17.00;67.80;;;;;;5014196;28;97129;-61
2021/07/28 10:40:33;;;;;;;11.20;8.13;;;17.00;67.50;;;;;;5017101;27;97226;-67
2021/07/28 10:43:03;;;;;;;;;;;17.00;67.60;;;;;;5016299;28;95255;-65
2021/07/28 10:45:57;;;;;;;14.93;7.57;;;16.90;68.00;;;;;;5018659;27;95663;-64
2021/07/28 10:48:53;;;;;;;11.00;6.50;;;16.80;68.30;;;;;;5018643;28;96752;-66
2021/07/28 10:51:49;;;;;;;6.97;5.70;;;16.70;68.20;;;;;;5006916;27;95880;-65
2021/07/28 10:54:39;;;;;;;10.30;6.00;;;16.60;68.40;;;;;;5015722;28;96140;-65
2021/07/28 10:57:29;;;;;;;9.20;6.07;;;16.60;68.50;;;;;;5014044;28;96507;-63
2021/07/28 11:00:00;;;;;;;9.90;5.85;;;16.50;68.60;;;;;;5016762;28;96623;-65
2021/07/28 11:02:55;;;;;;;9.23;5.75;;;16.40;68.70;;;;;;5013252;27;95896;-65
2021/07/28 11:05:29;;;;;;;7.15;5.63;;;16.40;68.60;;;;;;5013559;27;96458;-65
2021/07/28 11:08:05;;;;;;;6.13;4.80;;;16.30;68.30;;;;;;5023725;27;97408;-64
2021/07/28 11:10:45;;;;;;;9.07;4.65;;;16.30;68.70;;;;;;5004705;27;96678;-64
2021/07/28 11:13:19;;;;;;;6.45;4.30;;;16.20;69.50;;;;;;5008287;27;97810;-64
2021/07/28 11:15:59;;;;;;;5.93;4.05;;;16.20;68.40;;;;;;5008979;27;95420;-64
2021/07/28 11:18:41;;;;;;;5.97;4.00;;;16.30;68.90;;;;;;5009759;27;95890;-64
2021/07/28 11:21:14;;;;;;;6.45;3.85;;;16.20;69.10;;;;;;5011333;27;96217;-64
2021/07/28 11:23:55;;;;;;;7.65;4.90;;;16.10;69.40;;;;;;5008202;28;95890;-65
2021/07/28 11:26:34;;;;;;;6.07;4.10;;;16.10;69.70;;;;;;5018435;28;95674;-65
2021/07/28 11:29:14;;;;;;;7.20;4.07;;;16.10;69.90;;;;;;5008823;28;95631;-65
2021/07/28 11:31:49;;;;;;;6.33;4.03;;;16.00;69.90;;;;;;5017744;27;96859;-64
2021/07/28 11:34:55;;;;;;;7.00;4.40;;;16.00;70.10;;;;;;5010578;28;95754;-65
2021/07/28 11:37:26;;;;;;;9.25;5.57;;;16.00;69.90;;;;;;5007224;28;95669;-65
2021/07/28 11:39:59;;;;;;;10.07;4.90;;;16.00;70.00;;;;;;5025619;27;95554;-64
2021/07/28 11:42:30;;;;;;;8.02;4.60;;;16.00;70.10;;;;;;5009225;27;97423;-65
2021/07/28 11:45:00;;;;;;;8.02;4.85;;;15.90;70.30;;;;;;5006257;27;95719;-66
2021/07/28 11:47:31;;;;;;;7.63;4.45;;;15.90;70.30;;;;;;5013901;27;95953;-65
2021/07/28 11:50:05;;;;;;;;;;;15.90;70.20;;;;;;5010964;27;95897;-65
2021/07/28 11:52:48;;;;;;;9.93;5.45;;;16.00;70.40;;;;;;5016332;27;96857;-63
2021/07/28 11:55:25;;;;;;;8.05;4.68;;;16.00;70.80;;;;;;5009834;27;95702;-64
2021/07/28 11:57:54;;;;;;;8.55;4.55;;;16.00;70.80;;;;;;5015875;27;95714;-65
2021/07/28 12:00:39;;;;;;;8.75;5.03;;;16.00;70.70;;;;;;5003392;27;98520;-63
2021/07/28 12:03:23;;;;;;;8.68;5.20;;;16.00;70.60;;;;;;5016277;27;96638;-64
2021/07/28 12:06:06;;;;;;;12.15;4.95;;;16.00;71.30;;;;;;5046884;27;96268;-65
2021/07/28 12:08:40;;;;;;;12.45;4.45;;;15.90;70.90;;;;;;5012231;27;95839;-64
2021/07/28 12:11:13;;;;;;;12.52;5.25;;;15.90;71.10;;;;;;5016908;27;95769;-65
2021/07/28 12:13:49;;;;;;;8.80;5.22;;;15.80;71.20;;;;;;5012907;27;96124;-65
2021/07/28 12:16:19;;;;;;;8.20;5.18;;;15.80;71.40;;;;;;5010869;27;96024;-65
2021/07/28 12:18:52;;;;;;;8.40;4.27;;;15.70;71.40;;;;;;5021547;27;95532;-65
2021/07/28 12:21:22;;;;;;;7.93;5.15;;;15.70;71.40;;;;;;5017647;27;95831;-64
2021/07/28 12:23:57;;;;;;;8.48;4.68;;;15.70;71.40;;;;;;5017933;27;97909;-64
2021/07/28 12:26:48;;;;;;;9.63;5.30;;;15.60;71.50;;;;;;5010403;27;95387;-65
2021/07/28 12:29:38;;;;;;;9.18;4.90;;;15.60;71.40;;;;;;5012078;27;95495;-66
2021/07/28 12:32:12;;;;;;;9.32;4.10;;;15.60;71.60;;;;;;5006998;27;95722;-64
2021/07/28 12:34:44;;;;;;;7.85;4.05;;;15.50;71.50;;;;;;5014247;27;96526;-65
2021/07/28 12:37:24;;;;;;;10.15;4.80;;;15.50;71.50;;;;;;5011051;28;95882;-65
2021/07/28 12:39:59;;;;;;;8.77;3.92;;;15.50;71.70;;;;;;5009453;27;95564;-65
2021/07/28 12:42:31;;;;;;;8.73;4.25;;;15.40;71.60;;;;;;5011983;27;95770;-65
2021/07/28 12:45:09;;;;;;;6.93;4.00;;;15.40;71.70;;;;;;5011169;27;96134;-65
2021/07/28 12:47:40;;;;;;;8.50;3.80;;;15.40;71.60;;;;;;5022770;27;95950;-64
2021/07/28 12:50:12;;;;;;;6.50;3.95;;;15.40;71.70;;;;;;5019476;27;95664;-66
2021/07/28 12:52:46;;;;;;;9.07;4.30;;;15.30;71.60;;;;;;5025187;27;95278;-65
2021/07/28 12:55:18;;;;;;;8.15;4.22;;;15.30;71.80;;;;;;5030020;27;96300;-67
2021/07/28 12:57:48;;;;;;;6.63;3.58;;;15.30;71.90;;;;;;5026298;27;95378;-66
2021/07/28 13:00:22;;;;;;;6.90;4.60;;;15.30;71.90;;;;;;5020167;28;95823;-64
2021/07/28 13:02:54;;;;;;;8.07;4.93;;;15.20;71.80;;;;;;5029388;27;95550;-65
2021/07/28 13:05:26;;;;;;;7.18;3.92;;;15.20;71.90;;;;;;5030168;27;96344;-65
2021/07/28 13:07:59;;;;;;;8.73;4.03;;;15.20;71.90;;;;;;5042528;27;96114;-64
2021/07/28 13:10:33;;;;;;;8.23;5.25;;;15.10;72.00;;;;;;5030728;27;95558;-65
2021/07/28 13:13:05;;;;;;;8.52;4.70;;;15.10;71.60;;;;;;5034794;27;95270;-64
2021/07/28 13:15:41;;;;;;;7.75;3.42;;;15.20;71.80;;;;;;5029245;27;96513;-65
2021/07/28 13:18:13;;;;;;;10.15;4.53;;;15.20;71.90;;;;;;5032855;27;95826;-64
2021/07/28 13:20:44;;;;;;;;;;;15.20;71.70;;;;;;5037675;27;96853;-63
2021/07/28 13:23:16;;;;;;;6.53;3.45;;;15.10;71.80;;;;;;5028537;27;95875;-63
2021/07/28 13:25:46;;;;;;;7.53;4.13;;;15.20;71.60;;;;;;5037435;27;96002;-64
2021/07/28 13:28:16;;;;;;;8.80;3.72;;;15.10;71.60;;;;;;5028428;27;95741;-63
2021/07/28 13:30:46;;;;;;;7.88;4.20;;;15.10;71.50;;;;;;5029269;27;96698;-63
2021/07/28 13:33:16;;;;;;;9.00;4.05;;;15.10;71.40;;;;;;5037562;27;95797;-63
2021/07/28 13:35:46;;;;;;;9.77;4.07;;;15.10;71.50;;;;;;5033161;27;96035;-64
2021/07/28 13:38:16;;;;;;;6.88;3.83;;;15.10;71.60;;;;;;5044388;27;97744;-63
2021/07/28 13:40:46;;;;;;;8.70;3.83;;;15.10;71.60;;;;;;5030293;27;95935;-64
2021/07/28 13:43:15;;;;;;;10.00;4.93;;;15.10;71.70;;;;;;5054738;27;95936;-65
2021/07/28 13:45:47;;;;;;;6.60;4.20;;;15.10;71.70;;;;;;5028569;27;96485;-64
2021/07/28 13:48:17;;;;;;;7.53;4.07;;;15.00;71.60;;;;;;5019120;27;95850;-65
2021/07/28 13:50:48;;;;;;;6.38;4.50;;;15.00;71.70;;;;;;5027447;28;95229;-65
2021/07/28 13:53:17;;;;;;;6.78;3.53;;;15.00;71.60;;;;;;5020412;27;96090;-64
2021/07/28 13:55:47;;;;;;;8.23;4.35;;;15.00;71.70;;;;;;5009068;27;96364;-65
2021/07/28 13:58:17;;;;;;;5.38;3.33;;;15.00;71.60;;;;;;5024794;27;95714;-65
2021/07/28 14:00:47;;;;;;;6.88;3.95;;;15.00;71.70;;;;;;5011969;27;96141;-65
2021/07/28 14:03:19;;;;;;;8.95;4.07;;;15.00;71.80;;;;;;5012236;27;95887;-65
2021/07/28 14:05:50;;;;;;;6.57;3.93;;;15.00;72.00;;;;;;5012697;27;96534;-64
2021/07/28 14:21:15;;;;;;;5.60;3.38;;;14.90;72.00;;;;;;5032507;27;96166;-64
2021/07/28 14:23:47;;;;;;;7.20;3.70;;;14.90;72.00;;;;;;5030844;27;95764;-65
2021/07/28 14:26:18;;;;;;;6.70;3.65;;;14.80;72.10;;;;;;5032138;27;95667;-64
2021/07/28 14:28:48;;;;;;;8.02;3.95;;;14.80;72.00;;;;;;5039546;27;95867;-64
2021/07/28 14:31:18;;;;;;;6.35;3.80;;;14.80;72.00;;;;;;5034466;27;96071;-64
2021/07/28 14:33:48;;;;;;;5.55;3.80;;;14.80;72.20;;;;;;5064925;27;95920;-64
2021/07/28 14:36:18;;;;;;;7.47;3.83;;;14.80;72.00;;;;;;5030594;27;95654;-65
2021/07/28 14:38:48;;;;;;;6.18;3.63;;;14.80;72.00;;;;;;5032945;27;95257;-65
2021/07/28 14:41:21;;;;;;;7.05;3.78;;;14.80;72.80;;;;;;5033883;27;96021;-65
2021/07/28 14:43:51;;;;;;;7.32;4.15;;;14.70;72.00;;;;;;5034756;27;96029;-66
2021/07/28 14:46:35;;;;;;;7.38;3.97;;;14.70;72.20;;;;;;5025280;27;95842;-66
2021/07/28 14:49:06;;;;;;;7.75;3.90;;;14.70;72.30;;;;;;5033628;27;96733;-66